sensor_id;sensor_type;location;lat;lon;timestamp;P1;durP1;ratioP1;P2;durP2;ratioP2
84019;SDS011;74102;49.084;13.694;2024-02-16T00:00:11;7.43;;;3.60;;
84019;SDS011;74102;49.084;13.694;2024-02-16T00:02:37;6.72;;;2.85;;
84019;SDS011;74102;49.084;13.694;2024-02-16T00:05:04;5.85;;;2.88;;
84019;SDS011;74102;49.084;13.694;2024-02-16T00:07:32;5.75;;;3.00;;
84019;SDS011;74102;49.084;13.694;2024-02-16T00:09:58;8.30;;;3.70;;
84019;SDS011;74102;49.084;13.694;2024-02-16T00:12:23;8.00;;;2.78;;
84019;SDS011;74102;49.084;13.694;2024-02-16T00:14:48;10.10;;;4.45;;
84019;SDS011;74102;49.084;13.694;2024-02-16T00:17:14;9.68;;;5.05;;
84019;SDS011;74102;49.084;13.694;2024-02-16T00:19:40;8.15;;;4.25;;
84019;SDS011;74102;49.084;13.694;2024-02-16T00:22:05;9.70;;;4.38;;
84019;SDS011;74102;49.084;13.694;2024-02-16T00:24:32;9.68;;;4.30;;
84019;SDS011;74102;49.084;13.694;2024-02-16T00:26:58;7.75;;;3.90;;
84019;SDS011;74102;49.084;13.694;2024-02-16T00:29:24;11.73;;;4.82;;
84019;SDS011;74102;49.084;13.694;2024-02-16T00:31:49;9.75;;;4.80;;
84019;SDS011;74102;49.084;13.694;2024-02-16T00:34:15;9.18;;;4.60;;
84019;SDS011;74102;49.084;13.694;2024-02-16T00:36:41;7.28;;;3.22;;
84019;SDS011;74102;49.084;13.694;2024-02-16T00:39:06;6.80;;;3.20;;
84019;SDS011;74102;49.084;13.694;2024-02-16T00:41:31;6.82;;;2.50;;
84019;SDS011;74102;49.084;13.694;2024-02-16T00:43:57;6.22;;;2.83;;
84019;SDS011;74102;49.084;13.694;2024-02-16T00:46:22;5.20;;;2.30;;
84019;SDS011;74102;49.084;13.694;2024-02-16T00:48:51;6.22;;;2.90;;
84019;SDS011;74102;49.084;13.694;2024-02-16T00:51:17;7.00;;;2.55;;
84019;SDS011;74102;49.084;13.694;2024-02-16T00:53:42;4.70;;;2.20;;
84019;SDS011;74102;49.084;13.694;2024-02-16T00:56:08;4.90;;;2.50;;
84019;SDS011;74102;49.084;13.694;2024-02-16T00:58:34;4.68;;;1.83;;
84019;SDS011;74102;49.084;13.694;2024-02-16T01:01:01;3.90;;;1.83;;
84019;SDS011;74102;49.084;13.694;2024-02-16T01:03:26;5.20;;;2.40;;
84019;SDS011;74102;49.084;13.694;2024-02-16T01:05:52;6.20;;;2.47;;
84019;SDS011;74102;49.084;13.694;2024-02-16T01:08:18;6.05;;;2.88;;
84019;SDS011;74102;49.084;13.694;2024-02-16T01:10:43;5.40;;;2.40;;
84019;SDS011;74102;49.084;13.694;2024-02-16T01:13:09;6.28;;;2.50;;
84019;SDS011;74102;49.084;13.694;2024-02-16T01:15:35;5.15;;;2.38;;
84019;SDS011;74102;49.084;13.694;2024-02-16T01:18:02;5.25;;;2.40;;
84019;SDS011;74102;49.084;13.694;2024-02-16T01:20:28;4.82;;;2.20;;
84019;SDS011;74102;49.084;13.694;2024-02-16T01:22:56;6.53;;;3.00;;
84019;SDS011;74102;49.084;13.694;2024-02-16T01:25:21;6.72;;;2.80;;
84019;SDS011;74102;49.084;13.694;2024-02-16T01:27:47;7.80;;;3.53;;
84019;SDS011;74102;49.084;13.694;2024-02-16T01:30:12;6.30;;;2.78;;
84019;SDS011;74102;49.084;13.694;2024-02-16T01:32:37;6.00;;;3.45;;
84019;SDS011;74102;49.084;13.694;2024-02-16T01:35:03;5.25;;;2.85;;
84019;SDS011;74102;49.084;13.694;2024-02-16T01:37:28;4.63;;;2.03;;
84019;SDS011;74102;49.084;13.694;2024-02-16T01:39:54;6.00;;;2.20;;
84019;SDS011;74102;49.084;13.694;2024-02-16T01:42:19;5.38;;;2.42;;
84019;SDS011;74102;49.084;13.694;2024-02-16T01:44:44;4.22;;;1.90;;
84019;SDS011;74102;49.084;13.694;2024-02-16T01:47:10;5.32;;;1.70;;
84019;SDS011;74102;49.084;13.694;2024-02-16T01:49:35;4.18;;;1.70;;
84019;SDS011;74102;49.084;13.694;2024-02-16T01:52:01;6.18;;;2.15;;
84019;SDS011;74102;49.084;13.694;2024-02-16T01:54:28;4.57;;;2.15;;
84019;SDS011;74102;49.084;13.694;2024-02-16T01:56:54;5.43;;;1.75;;
84019;SDS011;74102;49.084;13.694;2024-02-16T01:59:20;4.72;;;2.00;;
84019;SDS011;74102;49.084;13.694;2024-02-16T02:01:45;5.97;;;2.40;;
84019;SDS011;74102;49.084;13.694;2024-02-16T02:04:11;4.45;;;1.83;;
84019;SDS011;74102;49.084;13.694;2024-02-16T02:06:36;3.13;;;1.30;;
84019;SDS011;74102;49.084;13.694;2024-02-16T02:09:03;3.60;;;1.40;;
84019;SDS011;74102;49.084;13.694;2024-02-16T02:11:28;3.40;;;1.20;;
84019;SDS011;74102;49.084;13.694;2024-02-16T02:13:54;4.28;;;1.40;;
84019;SDS011;74102;49.084;13.694;2024-02-16T02:16:19;5.07;;;1.58;;
84019;SDS011;74102;49.084;13.694;2024-02-16T02:18:46;2.78;;;1.27;;
84019;SDS011;74102;49.084;13.694;2024-02-16T02:21:11;4.30;;;1.42;;
84019;SDS011;74102;49.084;13.694;2024-02-16T02:23:39;3.65;;;1.50;;
84019;SDS011;74102;49.084;13.694;2024-02-16T02:26:05;5.50;;;2.00;;
84019;SDS011;74102;49.084;13.694;2024-02-16T02:28:30;4.07;;;1.80;;
84019;SDS011;74102;49.084;13.694;2024-02-16T02:30:55;4.85;;;1.60;;
84019;SDS011;74102;49.084;13.694;2024-02-16T02:33:21;3.58;;;1.50;;
84019;SDS011;74102;49.084;13.694;2024-02-16T02:35:46;4.03;;;1.50;;
84019;SDS011;74102;49.084;13.694;2024-02-16T02:38:12;3.67;;;1.67;;
84019;SDS011;74102;49.084;13.694;2024-02-16T02:40:38;3.65;;;1.63;;
84019;SDS011;74102;49.084;13.694;2024-02-16T02:43:03;4.93;;;1.90;;
84019;SDS011;74102;49.084;13.694;2024-02-16T02:45:29;4.68;;;1.80;;
84019;SDS011;74102;49.084;13.694;2024-02-16T02:47:54;3.47;;;1.27;;
84019;SDS011;74102;49.084;13.694;2024-02-16T02:50:19;4.13;;;1.55;;
84019;SDS011;74102;49.084;13.694;2024-02-16T02:52:45;4.30;;;1.60;;
84019;SDS011;74102;49.084;13.694;2024-02-16T02:55:10;4.40;;;1.60;;
84019;SDS011;74102;49.084;13.694;2024-02-16T02:57:36;5.07;;;2.05;;
84019;SDS011;74102;49.084;13.694;2024-02-16T03:00:02;4.88;;;1.55;;
84019;SDS011;74102;49.084;13.694;2024-02-16T03:02:31;4.35;;;1.70;;
84019;SDS011;74102;49.084;13.694;2024-02-16T03:04:56;3.97;;;1.52;;
84019;SDS011;74102;49.084;13.694;2024-02-16T03:07:21;4.35;;;2.00;;
84019;SDS011;74102;49.084;13.694;2024-02-16T03:09:47;4.03;;;1.85;;
84019;SDS011;74102;49.084;13.694;2024-02-16T03:12:12;4.88;;;1.90;;
84019;SDS011;74102;49.084;13.694;2024-02-16T03:14:37;4.28;;;1.70;;
84019;SDS011;74102;49.084;13.694;2024-02-16T03:17:03;3.90;;;1.33;;
84019;SDS011;74102;49.084;13.694;2024-02-16T03:19:28;4.47;;;1.55;;
84019;SDS011;74102;49.084;13.694;2024-02-16T03:21:54;3.65;;;1.38;;
84019;SDS011;74102;49.084;13.694;2024-02-16T03:24:20;5.63;;;1.60;;
84019;SDS011;74102;49.084;13.694;2024-02-16T03:26:47;3.60;;;1.40;;
84019;SDS011;74102;49.084;13.694;2024-02-16T03:29:12;3.33;;;1.20;;
84019;SDS011;74102;49.084;13.694;2024-02-16T03:31:38;3.20;;;1.20;;
84019;SDS011;74102;49.084;13.694;2024-02-16T03:34:03;3.88;;;1.30;;
84019;SDS011;74102;49.084;13.694;2024-02-16T03:36:28;4.47;;;1.60;;
84019;SDS011;74102;49.084;13.694;2024-02-16T03:38:55;6.70;;;2.03;;
84019;SDS011;74102;49.084;13.694;2024-02-16T03:41:21;7.63;;;2.60;;
84019;SDS011;74102;49.084;13.694;2024-02-16T03:43:50;4.90;;;2.20;;
84019;SDS011;74102;49.084;13.694;2024-02-16T03:46:16;5.18;;;1.45;;
84019;SDS011;74102;49.084;13.694;2024-02-16T03:48:41;4.32;;;1.55;;
84019;SDS011;74102;49.084;13.694;2024-02-16T03:51:07;4.40;;;1.40;;
84019;SDS011;74102;49.084;13.694;2024-02-16T03:53:33;3.83;;;1.38;;
84019;SDS011;74102;49.084;13.694;2024-02-16T03:55:59;3.40;;;1.42;;
84019;SDS011;74102;49.084;13.694;2024-02-16T03:58:24;4.30;;;1.52;;
84019;SDS011;74102;49.084;13.694;2024-02-16T04:00:50;3.70;;;1.50;;
84019;SDS011;74102;49.084;13.694;2024-02-16T04:03:15;4.00;;;1.40;;
84019;SDS011;74102;49.084;13.694;2024-02-16T04:05:41;4.32;;;1.63;;
84019;SDS011;74102;49.084;13.694;2024-02-16T04:08:07;4.65;;;2.45;;
84019;SDS011;74102;49.084;13.694;2024-02-16T04:10:33;4.03;;;1.55;;
84019;SDS011;74102;49.084;13.694;2024-02-16T04:12:59;4.18;;;1.75;;
84019;SDS011;74102;49.084;13.694;2024-02-16T04:15:24;3.78;;;1.80;;
84019;SDS011;74102;49.084;13.694;2024-02-16T04:17:51;3.65;;;1.52;;
84019;SDS011;74102;49.084;13.694;2024-02-16T04:20:16;4.22;;;1.70;;
84019;SDS011;74102;49.084;13.694;2024-02-16T04:22:42;5.28;;;1.77;;
84019;SDS011;74102;49.084;13.694;2024-02-16T04:25:07;4.55;;;2.03;;
84019;SDS011;74102;49.084;13.694;2024-02-16T04:27:34;5.72;;;2.20;;
84019;SDS011;74102;49.084;13.694;2024-02-16T04:29:59;5.97;;;1.75;;
84019;SDS011;74102;49.084;13.694;2024-02-16T04:32:25;4.47;;;2.15;;
84019;SDS011;74102;49.084;13.694;2024-02-16T04:34:51;5.68;;;2.42;;
84019;SDS011;74102;49.084;13.694;2024-02-16T04:37:21;5.18;;;2.50;;
84019;SDS011;74102;49.084;13.694;2024-02-16T04:39:47;5.00;;;2.45;;
84019;SDS011;74102;49.084;13.694;2024-02-16T04:42:12;4.32;;;2.03;;
84019;SDS011;74102;49.084;13.694;2024-02-16T04:44:38;4.65;;;2.30;;
84019;SDS011;74102;49.084;13.694;2024-02-16T04:47:05;3.50;;;1.52;;
84019;SDS011;74102;49.084;13.694;2024-02-16T04:49:30;4.30;;;1.73;;
84019;SDS011;74102;49.084;13.694;2024-02-16T04:51:55;3.53;;;1.48;;
84019;SDS011;74102;49.084;13.694;2024-02-16T04:54:21;3.13;;;1.42;;
84019;SDS011;74102;49.084;13.694;2024-02-16T04:56:47;3.50;;;1.20;;
84019;SDS011;74102;49.084;13.694;2024-02-16T04:59:13;2.05;;;0.82;;
84019;SDS011;74102;49.084;13.694;2024-02-16T05:01:39;2.55;;;0.93;;
84019;SDS011;74102;49.084;13.694;2024-02-16T05:04:04;2.60;;;1.10;;
84019;SDS011;74102;49.084;13.694;2024-02-16T05:06:30;3.35;;;1.27;;
84019;SDS011;74102;49.084;13.694;2024-02-16T05:08:56;4.70;;;1.77;;
84019;SDS011;74102;49.084;13.694;2024-02-16T05:11:22;4.65;;;1.98;;
84019;SDS011;74102;49.084;13.694;2024-02-16T05:13:49;3.67;;;1.55;;
84019;SDS011;74102;49.084;13.694;2024-02-16T05:16:15;5.03;;;1.88;;
84019;SDS011;74102;49.084;13.694;2024-02-16T05:18:40;5.68;;;1.90;;
84019;SDS011;74102;49.084;13.694;2024-02-16T05:21:05;3.92;;;1.55;;
84019;SDS011;74102;49.084;13.694;2024-02-16T05:23:31;4.55;;;1.73;;
84019;SDS011;74102;49.084;13.694;2024-02-16T05:25:56;3.78;;;1.50;;
84019;SDS011;74102;49.084;13.694;2024-02-16T05:28:22;4.07;;;1.45;;
84019;SDS011;74102;49.084;13.694;2024-02-16T05:30:47;4.05;;;1.80;;
84019;SDS011;74102;49.084;13.694;2024-02-16T05:33:12;4.55;;;2.05;;
84019;SDS011;74102;49.084;13.694;2024-02-16T05:35:39;8.82;;;3.33;;
84019;SDS011;74102;49.084;13.694;2024-02-16T05:38:06;9.50;;;3.47;;
84019;SDS011;74102;49.084;13.694;2024-02-16T05:40:35;8.55;;;2.90;;
84019;SDS011;74102;49.084;13.694;2024-02-16T05:45:43;5.47;;;2.03;;
84019;SDS011;74102;49.084;13.694;2024-02-16T05:48:09;5.45;;;1.98;;
84019;SDS011;74102;49.084;13.694;2024-02-16T05:50:35;5.18;;;2.30;;
84019;SDS011;74102;49.084;13.694;2024-02-16T05:53:00;5.20;;;2.05;;
84019;SDS011;74102;49.084;13.694;2024-02-16T05:55:26;5.60;;;2.88;;
84019;SDS011;74102;49.084;13.694;2024-02-16T05:57:51;6.55;;;2.58;;
84019;SDS011;74102;49.084;13.694;2024-02-16T06:00:17;5.05;;;2.33;;
84019;SDS011;74102;49.084;13.694;2024-02-16T06:02:46;3.97;;;1.65;;
84019;SDS011;74102;49.084;13.694;2024-02-16T06:05:11;5.07;;;1.65;;
84019;SDS011;74102;49.084;13.694;2024-02-16T06:07:37;4.35;;;2.00;;
84019;SDS011;74102;49.084;13.694;2024-02-16T06:10:03;3.55;;;1.70;;
84019;SDS011;74102;49.084;13.694;2024-02-16T06:12:32;6.93;;;2.47;;
84019;SDS011;74102;49.084;13.694;2024-02-16T06:14:57;7.75;;;2.03;;
84019;SDS011;74102;49.084;13.694;2024-02-16T06:17:23;5.18;;;1.85;;
84019;SDS011;74102;49.084;13.694;2024-02-16T06:19:49;5.57;;;2.10;;
84019;SDS011;74102;49.084;13.694;2024-02-16T06:22:14;5.25;;;2.45;;
84019;SDS011;74102;49.084;13.694;2024-02-16T06:24:40;4.28;;;1.92;;
84019;SDS011;74102;49.084;13.694;2024-02-16T06:27:05;6.53;;;2.38;;
84019;SDS011;74102;49.084;13.694;2024-02-16T06:29:33;4.88;;;2.13;;
84019;SDS011;74102;49.084;13.694;2024-02-16T06:31:58;5.53;;;1.73;;
84019;SDS011;74102;49.084;13.694;2024-02-16T06:34:24;4.40;;;2.00;;
84019;SDS011;74102;49.084;13.694;2024-02-16T06:36:49;4.65;;;1.80;;
84019;SDS011;74102;49.084;13.694;2024-02-16T06:39:15;5.60;;;2.70;;
84019;SDS011;74102;49.084;13.694;2024-02-16T06:41:44;6.78;;;2.55;;
84019;SDS011;74102;49.084;13.694;2024-02-16T06:44:11;5.32;;;2.28;;
84019;SDS011;74102;49.084;13.694;2024-02-16T06:46:40;6.05;;;2.13;;
84019;SDS011;74102;49.084;13.694;2024-02-16T06:49:06;5.63;;;2.30;;
84019;SDS011;74102;49.084;13.694;2024-02-16T06:51:31;5.95;;;1.55;;
84019;SDS011;74102;49.084;13.694;2024-02-16T06:53:56;3.47;;;1.23;;
84019;SDS011;74102;49.084;13.694;2024-02-16T06:56:22;4.70;;;1.60;;
84019;SDS011;74102;49.084;13.694;2024-02-16T06:58:47;5.07;;;1.52;;
84019;SDS011;74102;49.084;13.694;2024-02-16T07:01:13;5.03;;;1.90;;
84019;SDS011;74102;49.084;13.694;2024-02-16T07:03:39;4.63;;;1.75;;
84019;SDS011;74102;49.084;13.694;2024-02-16T07:06:05;4.45;;;1.95;;
84019;SDS011;74102;49.084;13.694;2024-02-16T07:08:34;3.72;;;1.83;;
84019;SDS011;74102;49.084;13.694;2024-02-16T07:11:03;4.50;;;2.10;;
84019;SDS011;74102;49.084;13.694;2024-02-16T07:13:29;5.78;;;2.78;;
84019;SDS011;74102;49.084;13.694;2024-02-16T07:15:55;12.38;;;4.10;;
84019;SDS011;74102;49.084;13.694;2024-02-16T07:18:21;11.10;;;4.45;;
84019;SDS011;74102;49.084;13.694;2024-02-16T07:20:46;30.58;;;8.93;;
84019;SDS011;74102;49.084;13.694;2024-02-16T07:23:12;24.17;;;8.38;;
84019;SDS011;74102;49.084;13.694;2024-02-16T07:25:38;20.92;;;7.95;;
84019;SDS011;74102;49.084;13.694;2024-02-16T07:28:03;35.95;;;11.77;;
84019;SDS011;74102;49.084;13.694;2024-02-16T07:30:30;38.50;;;13.60;;
84019;SDS011;74102;49.084;13.694;2024-02-16T07:32:55;41.97;;;16.20;;
84019;SDS011;74102;49.084;13.694;2024-02-16T07:35:21;37.33;;;16.33;;
84019;SDS011;74102;49.084;13.694;2024-02-16T07:37:49;39.03;;;16.38;;
84019;SDS011;74102;49.084;13.694;2024-02-16T07:40:17;39.97;;;17.38;;
84019;SDS011;74102;49.084;13.694;2024-02-16T07:42:42;33.60;;;14.40;;
84019;SDS011;74102;49.084;13.694;2024-02-16T07:45:09;32.28;;;13.30;;
84019;SDS011;74102;49.084;13.694;2024-02-16T07:47:36;25.92;;;11.73;;
84019;SDS011;74102;49.084;13.694;2024-02-16T07:50:02;22.20;;;10.13;;
84019;SDS011;74102;49.084;13.694;2024-02-16T07:52:28;21.92;;;10.05;;
84019;SDS011;74102;49.084;13.694;2024-02-16T07:54:54;21.85;;;10.38;;
84019;SDS011;74102;49.084;13.694;2024-02-16T07:57:19;21.35;;;10.05;;
84019;SDS011;74102;49.084;13.694;2024-02-16T07:59:45;20.30;;;10.43;;
84019;SDS011;74102;49.084;13.694;2024-02-16T08:02:10;23.50;;;12.43;;
84019;SDS011;74102;49.084;13.694;2024-02-16T08:04:40;18.95;;;10.50;;
84019;SDS011;74102;49.084;13.694;2024-02-16T08:07:06;20.55;;;10.52;;
84019;SDS011;74102;49.084;13.694;2024-02-16T08:09:31;23.33;;;10.95;;
84019;SDS011;74102;49.084;13.694;2024-02-16T08:11:57;31.63;;;12.23;;
84019;SDS011;74102;49.084;13.694;2024-02-16T08:14:22;32.30;;;11.40;;
84019;SDS011;74102;49.084;13.694;2024-02-16T08:16:47;26.27;;;12.55;;
84019;SDS011;74102;49.084;13.694;2024-02-16T08:19:13;34.08;;;18.27;;
84019;SDS011;74102;49.084;13.694;2024-02-16T08:21:39;38.88;;;20.10;;
84019;SDS011;74102;49.084;13.694;2024-02-16T08:24:05;39.60;;;20.55;;
84019;SDS011;74102;49.084;13.694;2024-02-16T08:26:32;42.50;;;22.48;;
84019;SDS011;74102;49.084;13.694;2024-02-16T08:28:57;47.03;;;21.52;;
84019;SDS011;74102;49.084;13.694;2024-02-16T08:31:23;58.63;;;27.45;;
84019;SDS011;74102;49.084;13.694;2024-02-16T08:33:48;60.95;;;28.25;;
84019;SDS011;74102;49.084;13.694;2024-02-16T08:36:14;53.63;;;25.88;;
84019;SDS011;74102;49.084;13.694;2024-02-16T08:38:40;45.90;;;21.58;;
84019;SDS011;74102;49.084;13.694;2024-02-16T08:41:05;40.65;;;18.08;;
84019;SDS011;74102;49.084;13.694;2024-02-16T08:43:30;43.03;;;20.13;;
84019;SDS011;74102;49.084;13.694;2024-02-16T08:45:56;46.63;;;22.13;;
84019;SDS011;74102;49.084;13.694;2024-02-16T08:48:21;42.72;;;20.05;;
84019;SDS011;74102;49.084;13.694;2024-02-16T08:50:49;43.22;;;20.65;;
84019;SDS011;74102;49.084;13.694;2024-02-16T08:53:15;66.10;;;24.80;;
84019;SDS011;74102;49.084;13.694;2024-02-16T08:55:41;85.43;;;29.58;;
84019;SDS011;74102;49.084;13.694;2024-02-16T08:58:07;76.60;;;26.67;;
84019;SDS011;74102;49.084;13.694;2024-02-16T09:00:33;71.88;;;26.83;;
84019;SDS011;74102;49.084;13.694;2024-02-16T09:02:59;51.58;;;21.50;;
84019;SDS011;74102;49.084;13.694;2024-02-16T09:05:27;35.30;;;17.70;;
84019;SDS011;74102;49.084;13.694;2024-02-16T09:07:52;47.30;;;20.65;;
84019;SDS011;74102;49.084;13.694;2024-02-16T09:10:18;52.35;;;22.58;;
84019;SDS011;74102;49.084;13.694;2024-02-16T09:12:43;68.47;;;27.63;;
84019;SDS011;74102;49.084;13.694;2024-02-16T09:15:09;110.72;;;37.95;;
84019;SDS011;74102;49.084;13.694;2024-02-16T09:17:34;88.30;;;30.15;;
84019;SDS011;74102;49.084;13.694;2024-02-16T09:19:59;68.18;;;27.55;;
84019;SDS011;74102;49.084;13.694;2024-02-16T09:22:25;51.55;;;22.90;;
84019;SDS011;74102;49.084;13.694;2024-02-16T09:24:51;46.00;;;24.00;;
84019;SDS011;74102;49.084;13.694;2024-02-16T09:27:16;38.15;;;20.13;;
84019;SDS011;74102;49.084;13.694;2024-02-16T09:29:42;39.60;;;19.05;;
84019;SDS011;74102;49.084;13.694;2024-02-16T09:32:07;31.77;;;14.65;;
84019;SDS011;74102;49.084;13.694;2024-02-16T09:34:34;32.15;;;16.38;;
84019;SDS011;74102;49.084;13.694;2024-02-16T09:36:59;31.55;;;15.20;;
84019;SDS011;74102;49.084;13.694;2024-02-16T09:39:25;27.48;;;13.52;;
84019;SDS011;74102;49.084;13.694;2024-02-16T09:41:53;34.95;;;16.92;;
84019;SDS011;74102;49.084;13.694;2024-02-16T09:44:19;30.92;;;14.90;;
84019;SDS011;74102;49.084;13.694;2024-02-16T09:46:46;23.38;;;11.45;;
84019;SDS011;74102;49.084;13.694;2024-02-16T09:49:12;20.52;;;9.55;;
84019;SDS011;74102;49.084;13.694;2024-02-16T09:51:37;14.77;;;6.50;;
84019;SDS011;74102;49.084;13.694;2024-02-16T09:54:03;8.45;;;3.65;;
84019;SDS011;74102;49.084;13.694;2024-02-16T09:56:29;6.50;;;2.33;;
84019;SDS011;74102;49.084;13.694;2024-02-16T09:58:54;6.53;;;2.75;;
84019;SDS011;74102;49.084;13.694;2024-02-16T10:01:20;11.77;;;5.03;;
84019;SDS011;74102;49.084;13.694;2024-02-16T10:03:47;11.30;;;4.63;;
84019;SDS011;74102;49.084;13.694;2024-02-16T10:06:14;9.90;;;4.03;;
84019;SDS011;74102;49.084;13.694;2024-02-16T10:11:18;7.18;;;2.83;;
84019;SDS011;74102;49.084;13.694;2024-02-16T10:13:55;5.68;;;2.30;;
84019;SDS011;74102;49.084;13.694;2024-02-16T10:16:21;7.82;;;3.20;;
84019;SDS011;74102;49.084;13.694;2024-02-16T10:18:46;5.72;;;2.72;;
84019;SDS011;74102;49.084;13.694;2024-02-16T10:21:12;6.55;;;2.42;;
84019;SDS011;74102;49.084;13.694;2024-02-16T10:23:37;5.07;;;2.13;;
84019;SDS011;74102;49.084;13.694;2024-02-16T10:26:02;5.25;;;2.00;;
84019;SDS011;74102;49.084;13.694;2024-02-16T10:28:29;5.55;;;2.13;;
84019;SDS011;74102;49.084;13.694;2024-02-16T10:30:59;5.55;;;1.67;;
84019;SDS011;74102;49.084;13.694;2024-02-16T10:33:26;4.35;;;1.75;;
84019;SDS011;74102;49.084;13.694;2024-02-16T10:35:53;4.03;;;1.90;;
84019;SDS011;74102;49.084;13.694;2024-02-16T10:38:22;5.45;;;1.83;;
84019;SDS011;74102;49.084;13.694;2024-02-16T10:40:48;6.30;;;1.88;;
84019;SDS011;74102;49.084;13.694;2024-02-16T10:43:16;5.20;;;1.52;;
84019;SDS011;74102;49.084;13.694;2024-02-16T10:45:43;3.95;;;1.35;;
84019;SDS011;74102;49.084;13.694;2024-02-16T10:48:09;3.72;;;1.67;;
84019;SDS011;74102;49.084;13.694;2024-02-16T10:50:35;5.03;;;2.40;;
84019;SDS011;74102;49.084;13.694;2024-02-16T10:53:09;6.45;;;2.90;;
84019;SDS011;74102;49.084;13.694;2024-02-16T10:55:41;6.00;;;3.17;;
84019;SDS011;74102;49.084;13.694;2024-02-16T10:58:08;5.53;;;2.95;;
84019;SDS011;74102;49.084;13.694;2024-02-16T11:00:36;7.28;;;3.33;;
84019;SDS011;74102;49.084;13.694;2024-02-16T11:03:01;21.13;;;9.25;;
84019;SDS011;74102;49.084;13.694;2024-02-16T11:05:35;11.23;;;5.80;;
84019;SDS011;74102;49.084;13.694;2024-02-16T11:08:02;9.23;;;4.22;;
84019;SDS011;74102;49.084;13.694;2024-02-16T11:10:36;9.60;;;5.15;;
84019;SDS011;74102;49.084;13.694;2024-02-16T11:13:02;9.52;;;5.03;;
84019;SDS011;74102;49.084;13.694;2024-02-16T11:15:32;8.27;;;4.10;;
84019;SDS011;74102;49.084;13.694;2024-02-16T11:18:02;12.80;;;4.95;;
84019;SDS011;74102;49.084;13.694;2024-02-16T11:20:29;10.52;;;5.10;;
84019;SDS011;74102;49.084;13.694;2024-02-16T11:23:06;11.93;;;5.68;;
84019;SDS011;74102;49.084;13.694;2024-02-16T11:25:34;12.10;;;5.82;;
84019;SDS011;74102;49.084;13.694;2024-02-16T11:28:01;10.10;;;4.80;;
84019;SDS011;74102;49.084;13.694;2024-02-16T11:30:27;11.82;;;5.63;;
84019;SDS011;74102;49.084;13.694;2024-02-16T11:32:52;11.30;;;5.68;;
84019;SDS011;74102;49.084;13.694;2024-02-16T11:35:17;10.00;;;5.32;;
84019;SDS011;74102;49.084;13.694;2024-02-16T11:37:43;9.73;;;4.47;;
84019;SDS011;74102;49.084;13.694;2024-02-16T11:40:11;10.25;;;5.20;;
84019;SDS011;74102;49.084;13.694;2024-02-16T11:42:37;8.82;;;5.15;;
84019;SDS011;74102;49.084;13.694;2024-02-16T11:45:02;9.02;;;4.93;;
84019;SDS011;74102;49.084;13.694;2024-02-16T11:47:28;10.80;;;5.20;;
84019;SDS011;74102;49.084;13.694;2024-02-16T11:50:27;10.30;;;5.55;;
84019;SDS011;74102;49.084;13.694;2024-02-16T11:52:46;9.98;;;5.25;;
84019;SDS011;74102;49.084;13.694;2024-02-16T11:55:12;10.48;;;5.65;;
84019;SDS011;74102;49.084;13.694;2024-02-16T11:57:39;11.00;;;6.15;;
84019;SDS011;74102;49.084;13.694;2024-02-16T12:00:05;10.45;;;5.30;;
84019;SDS011;74102;49.084;13.694;2024-02-16T12:02:35;11.48;;;5.75;;
84019;SDS011;74102;49.084;13.694;2024-02-16T12:05:02;9.63;;;5.63;;
84019;SDS011;74102;49.084;13.694;2024-02-16T12:07:28;9.55;;;6.03;;
84019;SDS011;74102;49.084;13.694;2024-02-16T12:10:03;9.65;;;5.57;;
84019;SDS011;74102;49.084;13.694;2024-02-16T12:12:30;10.45;;;5.60;;
84019;SDS011;74102;49.084;13.694;2024-02-16T12:14:56;9.60;;;5.07;;
84019;SDS011;74102;49.084;13.694;2024-02-16T12:17:22;8.95;;;5.03;;
84019;SDS011;74102;49.084;13.694;2024-02-16T12:19:49;9.43;;;4.75;;
84019;SDS011;74102;49.084;13.694;2024-02-16T12:22:22;11.07;;;5.68;;
84019;SDS011;74102;49.084;13.694;2024-02-16T12:24:50;9.48;;;5.07;;
84019;SDS011;74102;49.084;13.694;2024-02-16T12:27:16;10.48;;;5.13;;
84019;SDS011;74102;49.084;13.694;2024-02-16T12:29:41;7.35;;;4.15;;
84019;SDS011;74102;49.084;13.694;2024-02-16T12:32:07;9.63;;;4.72;;
84019;SDS011;74102;49.084;13.694;2024-02-16T12:34:36;7.93;;;4.25;;
84019;SDS011;74102;49.084;13.694;2024-02-16T12:37:05;8.57;;;4.07;;
84019;SDS011;74102;49.084;13.694;2024-02-16T12:39:35;9.15;;;4.65;;
84019;SDS011;74102;49.084;13.694;2024-02-16T12:42:00;8.88;;;4.63;;
84019;SDS011;74102;49.084;13.694;2024-02-16T12:44:26;7.35;;;3.75;;
84019;SDS011;74102;49.084;13.694;2024-02-16T12:46:51;9.63;;;4.60;;
84019;SDS011;74102;49.084;13.694;2024-02-16T12:49:16;7.53;;;3.78;;
84019;SDS011;74102;49.084;13.694;2024-02-16T12:51:42;8.27;;;3.90;;
84019;SDS011;74102;49.084;13.694;2024-02-16T12:54:07;6.03;;;3.50;;
84019;SDS011;74102;49.084;13.694;2024-02-16T12:56:38;6.28;;;3.30;;
84019;SDS011;74102;49.084;13.694;2024-02-16T12:59:05;7.00;;;3.72;;
84019;SDS011;74102;49.084;13.694;2024-02-16T13:01:30;7.20;;;3.83;;
84019;SDS011;74102;49.084;13.694;2024-02-16T13:03:56;7.97;;;4.07;;
84019;SDS011;74102;49.084;13.694;2024-02-16T13:06:21;7.85;;;4.45;;
84019;SDS011;74102;49.084;13.694;2024-02-16T13:08:46;10.80;;;5.38;;
84019;SDS011;74102;49.084;13.694;2024-02-16T13:11:12;9.57;;;5.25;;
84019;SDS011;74102;49.084;13.694;2024-02-16T13:13:37;13.90;;;6.88;;
84019;SDS011;74102;49.084;13.694;2024-02-16T13:16:03;17.70;;;9.05;;
84019;SDS011;74102;49.084;13.694;2024-02-16T13:18:28;11.95;;;6.88;;
84019;SDS011;74102;49.084;13.694;2024-02-16T13:20:54;10.15;;;6.53;;
84019;SDS011;74102;49.084;13.694;2024-02-16T13:23:19;12.25;;;8.02;;
84019;SDS011;74102;49.084;13.694;2024-02-16T13:25:45;11.35;;;6.97;;
84019;SDS011;74102;49.084;13.694;2024-02-16T13:28:10;13.35;;;6.80;;
84019;SDS011;74102;49.084;13.694;2024-02-16T13:30:35;12.63;;;6.60;;
84019;SDS011;74102;49.084;13.694;2024-02-16T13:33:02;10.25;;;5.95;;
84019;SDS011;74102;49.084;13.694;2024-02-16T13:35:27;10.52;;;5.80;;
84019;SDS011;74102;49.084;13.694;2024-02-16T13:37:53;10.35;;;6.43;;
84019;SDS011;74102;49.084;13.694;2024-02-16T13:40:19;11.77;;;6.30;;
84019;SDS011;74102;49.084;13.694;2024-02-16T13:42:44;12.23;;;7.60;;
84019;SDS011;74102;49.084;13.694;2024-02-16T13:45:10;17.38;;;10.40;;
84019;SDS011;74102;49.084;13.694;2024-02-16T13:47:36;16.42;;;10.35;;
84019;SDS011;74102;49.084;13.694;2024-02-16T13:50:01;15.80;;;8.98;;
84019;SDS011;74102;49.084;13.694;2024-02-16T13:52:27;23.63;;;13.23;;
84019;SDS011;74102;49.084;13.694;2024-02-16T13:54:53;16.92;;;8.85;;
84019;SDS011;74102;49.084;13.694;2024-02-16T13:57:18;12.93;;;7.50;;
84019;SDS011;74102;49.084;13.694;2024-02-16T13:59:45;17.05;;;10.25;;
84019;SDS011;74102;49.084;13.694;2024-02-16T14:02:10;15.00;;;8.63;;
84019;SDS011;74102;49.084;13.694;2024-02-16T14:04:37;17.13;;;11.35;;
84019;SDS011;74102;49.084;13.694;2024-02-16T14:07:03;17.38;;;8.70;;
84019;SDS011;74102;49.084;13.694;2024-02-16T14:09:28;17.67;;;11.30;;
84019;SDS011;74102;49.084;13.694;2024-02-16T14:11:54;16.73;;;10.48;;
84019;SDS011;74102;49.084;13.694;2024-02-16T14:14:21;15.80;;;10.02;;
84019;SDS011;74102;49.084;13.694;2024-02-16T14:16:48;17.70;;;10.85;;
84019;SDS011;74102;49.084;13.694;2024-02-16T14:19:13;17.95;;;10.15;;
84019;SDS011;74102;49.084;13.694;2024-02-16T14:21:38;19.13;;;11.38;;
84019;SDS011;74102;49.084;13.694;2024-02-16T14:24:04;16.15;;;9.82;;
84019;SDS011;74102;49.084;13.694;2024-02-16T14:26:29;21.85;;;12.13;;